createdAt,value
2022-10-30T00:01:11.279Z,101588.22
2022-10-30T00:03:38.631Z,101597.16
2022-10-30T00:06:06.448Z,101598.19
2022-10-30T00:08:34.293Z,101593.03
2022-10-30T00:11:08.186Z,101592.28
2022-10-30T00:13:36.870Z,101597.75
2022-10-30T00:16:07.779Z,101588.19
2022-10-30T00:18:42.106Z,101590.13
2022-10-30T00:21:13.753Z,101587.66
2022-10-30T00:23:48.816Z,101573.06
2022-10-30T00:26:17.653Z,101579.38
2022-10-30T00:28:50.696Z,101577.66
2022-10-30T00:31:18.565Z,101589.25
2022-10-30T00:33:52.233Z,101589.41
2022-10-30T00:36:20.473Z,101583.41
2022-10-30T00:38:48.118Z,101588.88
2022-10-30T00:41:19.749Z,101585.47
2022-10-30T00:43:47.697Z,101584.06
2022-10-30T00:46:30.493Z,101590.31
2022-10-30T00:49:10.290Z,101589.53
2022-10-30T00:51:42.657Z,101585.16
2022-10-30T00:54:10.556Z,101589.66
2022-10-30T00:56:38.554Z,101587.94
2022-10-30T00:59:13.385Z,101580.97
2022-10-30T01:01:45.090Z,101587.22
2022-10-30T01:04:16.770Z,101579.38
2022-10-30T01:06:51.934Z,101581.22
2022-10-30T01:09:20.338Z,101576.00
2022-10-30T01:11:47.884Z,101583.13
2022-10-30T01:14:21.145Z,101584.16
2022-10-30T01:17:03.387Z,101586.94
2022-10-30T01:19:49.725Z,101577.34
2022-10-30T01:22:56.828Z,101582.69
2022-10-30T01:25:59.531Z,101580.19
2022-10-30T01:29:08.739Z,101584.72
2022-10-30T01:31:51.184Z,101584.94
2022-10-30T01:34:51.489Z,101580.66
2022-10-30T01:37:58.092Z,101587.03
2022-10-30T01:40:25.625Z,101577.50
2022-10-30T01:42:58.578Z,101588.16
2022-10-30T01:46:17.915Z,101601.53
2022-10-30T01:52:25.587Z,101591.50
2022-10-30T01:55:24.157Z,101590.72
2022-10-30T01:58:06.078Z,101586.38
2022-10-30T02:00:33.577Z,101583.88
2022-10-30T02:03:01.950Z,101587.47
2022-10-30T02:05:51.883Z,101589.22
2022-10-30T02:08:21.896Z,101584.97
2022-10-30T02:10:54.272Z,101584.16
2022-10-30T02:13:34.807Z,101590.41
2022-10-30T02:16:03.106Z,101591.28
2022-10-30T02:18:30.819Z,101592.25
2022-10-30T02:21:00.673Z,101593.22
2022-10-30T02:23:28.067Z,101600.34
2022-10-30T02:25:55.934Z,101596.88
2022-10-30T02:28:23.291Z,101603.94
2022-10-30T02:30:50.714Z,101603.16
2022-10-30T02:35:54.584Z,101605.00
2022-10-30T02:38:21.868Z,101599.88
2022-10-30T02:40:50.983Z,101596.28
2022-10-30T02:43:18.339Z,101591.75
2022-10-30T02:45:51.393Z,101603.16
2022-10-30T02:48:18.747Z,101617.19
2022-10-30T02:50:46.083Z,101610.09
2022-10-30T02:53:13.434Z,101598.56
2022-10-30T02:55:40.810Z,101608.97
2022-10-30T02:58:08.758Z,101607.13
2022-10-30T03:00:36.818Z,101606.97
2022-10-30T03:03:04.220Z,101597.19
2022-10-30T03:05:31.597Z,101596.19
2022-10-30T03:07:59.192Z,101601.44
2022-10-30T03:10:26.956Z,101598.69
2022-10-30T03:12:54.355Z,101593.34
2022-10-30T03:15:21.704Z,101596.81
2022-10-30T03:17:52.309Z,101604.72
2022-10-30T03:20:20.339Z,101614.44
2022-10-30T03:22:47.668Z,101612.63
2022-10-30T03:25:23.455Z,101604.59
2022-10-30T03:27:55.036Z,101604.56
2022-10-30T03:30:22.776Z,101603.59
2022-10-30T03:32:50.275Z,101604.50
2022-10-30T03:35:17.623Z,101595.63
2022-10-30T03:37:44.998Z,101604.50
2022-10-30T03:40:12.535Z,101601.84
2022-10-30T03:42:41.260Z,101600.97
2022-10-30T03:45:10.141Z,101601.88
2022-10-30T03:47:40.570Z,101604.53
2022-10-30T03:50:09.484Z,101603.72
2022-10-30T03:52:36.967Z,101610.78
2022-10-30T03:55:05.124Z,101598.47
2022-10-30T03:57:37.501Z,101594.09
2022-10-30T04:00:13.125Z,101595.94
2022-10-30T04:02:52.247Z,101593.31
2022-10-30T04:05:23.753Z,101595.97
2022-10-30T04:08:02.581Z,101595.03
2022-10-30T04:10:35.139Z,101600.38
2022-10-30T04:13:08.022Z,101603.94
2022-10-30T04:15:40.682Z,101603.94
2022-10-30T04:18:12.280Z,101603.03
2022-10-30T04:20:39.661Z,101606.72
2022-10-30T04:23:13.112Z,101604.13
2022-10-30T04:25:40.902Z,101604.13
2022-10-30T04:28:10.098Z,101612.06
2022-10-30T04:30:39.418Z,101610.25
2022-10-30T04:33:11.994Z,101615.56
2022-10-30T04:35:41.523Z,101615.56
2022-10-30T04:38:16.018Z,101619.97
2022-10-30T04:40:45.200Z,101619.09
2022-10-30T04:43:14.639Z,101604.97
2022-10-30T04:45:43.582Z,101604.13
2022-10-30T04:48:18.524Z,101604.97
2022-10-30T04:50:48.084Z,101597.97
2022-10-30T04:53:25.681Z,101608.56
2022-10-30T04:55:59.313Z,101606.75
2022-10-30T04:58:28.305Z,101605.13
2022-10-30T05:01:07.078Z,101606.13
2022-10-30T05:03:35.938Z,101609.81
2022-10-30T05:06:26.767Z,101611.69
2022-10-30T05:08:55.729Z,101609.28
2022-10-30T05:11:38.632Z,101605.94
2022-10-30T05:14:07.009Z,101605.19
2022-10-30T05:16:34.429Z,101597.44
2022-10-30T05:19:04.095Z,101595.81
2022-10-30T05:21:33.627Z,101595.13
2022-10-30T05:24:01.157Z,101586.47
2022-10-30T05:26:33.792Z,101579.59
2022-10-30T05:29:01.232Z,101581.41
2022-10-30T05:31:28.577Z,101577.94
2022-10-30T05:34:08.142Z,101586.00
2022-10-30T05:36:38.612Z,101577.25
2022-10-30T05:39:06.636Z,101587.81
2022-10-30T05:41:42.094Z,101580.78
2022-10-30T05:44:09.830Z,101587.88
2022-10-30T05:46:39.511Z,101587.88
2022-10-30T05:49:15.579Z,101589.78
2022-10-30T05:51:43.648Z,101602.16
2022-10-30T05:54:12.073Z,101587.38
2022-10-30T05:56:50.527Z,101591.00
2022-10-30T05:59:18.365Z,101591.09
2022-10-30T06:01:46.283Z,101591.16
2022-10-30T06:04:13.632Z,101585.97
2022-10-30T06:06:41.318Z,101586.94
2022-10-30T06:09:08.729Z,101596.69
2022-10-30T06:11:54.824Z,101602.13
2022-10-30T06:14:31.799Z,101603.09
2022-10-30T06:16:59.145Z,101599.69
2022-10-30T06:19:58.523Z,101609.63
2022-10-30T06:22:42.844Z,101609.72
2022-10-30T06:25:16.863Z,101601.91
2022-10-30T06:27:58.983Z,101599.38
2022-10-30T06:30:28.334Z,101595.09
2022-10-30T06:33:01.852Z,101603.88
2022-10-30T06:35:30.943Z,101597.78
2022-10-30T06:38:00.206Z,101612.78
2022-10-30T06:40:30.044Z,101611.13
2022-10-30T06:43:15.897Z,101609.44
2022-10-30T06:45:54.576Z,101606.88
2022-10-30T06:48:25.085Z,101601.66
2022-10-30T06:50:59.814Z,101598.97
2022-10-30T06:53:28.409Z,101592.91
2022-10-30T06:56:04.740Z,101593.00
2022-10-30T06:58:44.160Z,101594.88
2022-10-30T07:01:21.545Z,101591.47
2022-10-30T07:04:12.670Z,101590.56
2022-10-30T07:06:40.070Z,101594.03
2022-10-30T07:09:07.615Z,101592.28
2022-10-30T07:11:35.032Z,101593.13
2022-10-30T07:14:30.992Z,101597.50
2022-10-30T07:17:11.786Z,101599.25
2022-10-30T07:19:41.315Z,101597.47
2022-10-30T07:22:10.917Z,101596.53
2022-10-30T07:24:42.866Z,101595.66
2022-10-30T07:27:10.196Z,101589.44
2022-10-30T07:29:42.490Z,101592.91
2022-10-30T07:32:25.578Z,101596.38
2022-10-30T07:35:10.208Z,101593.72
2022-10-30T07:38:11.944Z,101596.22
2022-10-30T07:41:01.879Z,101590.94
2022-10-30T07:43:55.547Z,101582.94
2022-10-30T07:46:44.691Z,101576.75
2022-10-30T07:49:30.769Z,101573.16
2022-10-30T07:52:02.448Z,101578.31
2022-10-30T07:54:29.839Z,101587.88
2022-10-30T07:57:03.171Z,101591.31
2022-10-30T08:02:43.109Z,101592.00
2022-10-30T08:05:19.343Z,101592.75
2022-10-30T08:08:09.314Z,101582.97
2022-10-30T08:10:38.188Z,101580.19
2022-10-30T08:13:05.622Z,101582.72
2022-10-30T08:15:33.323Z,101583.53
2022-10-30T08:18:01.718Z,101583.41
2022-10-30T08:20:29.266Z,101593.03
2022-10-30T08:22:58.512Z,101588.53
2022-10-30T08:25:30.550Z,101593.69
2022-10-30T08:28:06.419Z,101595.34
2022-10-30T08:30:38.512Z,101594.38
2022-10-30T08:33:15.738Z,101598.59
2022-10-30T08:36:02.319Z,101596.69
2022-10-30T08:38:31.816Z,101596.53
2022-10-30T08:41:28.349Z,101586.66
2022-10-30T08:43:55.789Z,101576.78
2022-10-30T08:46:26.546Z,101580.06
2022-10-30T08:48:55.472Z,101572.78
2022-10-30T08:51:23.863Z,101569.94
2022-10-30T08:53:51.351Z,101570.56
2022-10-30T08:56:20.518Z,101568.56
2022-10-30T08:59:06.414Z,101580.66
2022-10-30T09:01:36.797Z,101583.06
2022-10-30T09:04:19.519Z,101582.75
2022-10-30T09:07:07.621Z,101587.66
2022-10-30T09:09:50.042Z,101571.44
2022-10-30T09:12:17.485Z,101571.09
2022-10-30T09:14:46.807Z,101567.19
2022-10-30T09:17:14.304Z,101584.56
2022-10-30T09:19:45.425Z,101593.94
2022-10-30T09:22:18.230Z,101590.13
2022-10-30T09:24:46.822Z,101586.19
2022-10-30T09:27:38.820Z,101582.22
2022-10-30T09:30:08.808Z,101580.03
2022-10-30T09:32:41.575Z,101576.22
2022-10-30T09:35:11.574Z,101566.91
2022-10-30T09:37:40.743Z,101561.19
2022-10-30T09:40:46.542Z,101559.78
2022-10-30T09:43:47.523Z,101565.47
2022-10-30T09:46:35.601Z,101569.31
2022-10-30T09:49:56.036Z,101566.03
2022-10-30T09:53:03.808Z,101555.69
2022-10-30T09:55:56.143Z,101560.41
2022-10-30T09:58:38.407Z,101562.34
2022-10-30T10:01:16.840Z,101570.59
2022-10-30T10:04:48.809Z,101571.66
2022-10-30T10:07:41.838Z,101573.53
2022-10-30T10:10:59.659Z,101578.16
2022-10-30T10:13:48.164Z,101584.47
2022-10-30T10:16:30.724Z,101592.63
2022-10-30T10:19:15.692Z,101599.16
2022-10-30T10:21:53.106Z,101598.59
2022-10-30T10:24:27.099Z,101598.22
2022-10-30T10:27:32.579Z,101579.94
2022-10-30T10:30:21.246Z,101592.03
2022-10-30T10:33:33.488Z,101588.91
2022-10-30T10:37:05.518Z,101584.88
2022-10-30T10:40:00.306Z,101574.56
2022-10-30T10:42:58.848Z,101578.22
2022-10-30T10:45:39.604Z,101582.94
2022-10-30T10:48:42.627Z,101581.53
2022-10-30T10:51:15.647Z,101576.97
2022-10-30T10:53:56.441Z,101583.84
2022-10-30T10:56:37.667Z,101574.66
2022-10-30T10:59:16.047Z,101568.00
2022-10-30T11:01:54.351Z,101574.59
2022-10-30T11:04:34.017Z,101566.03
2022-10-30T11:07:20.624Z,101563.81
2022-10-30T11:09:53.710Z,101561.59
2022-10-30T11:12:30.976Z,101560.41
2022-10-30T11:15:27.365Z,101547.75
2022-10-30T11:21:04.019Z,101554.50
2022-10-30T11:23:42.881Z,101554.41
2022-10-30T11:26:20.143Z,101563.00
2022-10-30T11:28:56.008Z,101559.16
2022-10-30T11:31:41.940Z,101548.31
2022-10-30T11:34:18.250Z,101544.56
2022-10-30T11:36:52.201Z,101538.09
2022-10-30T11:39:32.747Z,101539.84
2022-10-30T11:42:06.164Z,101540.53
2022-10-30T11:44:49.527Z,101538.38
2022-10-30T11:47:27.485Z,101538.81
2022-10-30T11:49:59.806Z,101539.31
2022-10-30T11:52:28.247Z,101541.81
2022-10-30T11:55:09.858Z,101535.53
2022-10-30T11:57:46.703Z,101535.53
2022-10-30T12:00:25.713Z,101541.22
2022-10-30T12:03:03.570Z,101530.09
2022-10-30T12:05:44.928Z,101527.72
2022-10-30T12:08:18.366Z,101529.19
2022-10-30T12:11:04.126Z,101525.31
2022-10-30T12:13:39.490Z,101523.50
2022-10-30T12:16:19.074Z,101519.78
2022-10-30T12:19:01.367Z,101520.47
2022-10-30T12:21:40.295Z,101528.97
2022-10-30T12:24:21.021Z,101522.16
2022-10-30T12:26:54.434Z,101520.94
2022-10-30T12:30:02.743Z,101526.13
2022-10-30T12:32:29.894Z,101517.13
2022-10-30T12:35:05.899Z,101519.50
2022-10-30T12:37:40.180Z,101514.00
2022-10-30T12:40:20.286Z,101514.00
2022-10-30T12:43:19.506Z,101510.34
2022-10-30T12:45:51.117Z,101506.75
2022-10-30T12:48:30.388Z,101505.88
2022-10-30T12:51:21.254Z,101508.44
2022-10-30T12:54:04.503Z,101502.25
2022-10-30T12:56:42.972Z,101500.53
2022-10-30T13:00:13.592Z,101501.56
2022-10-30T13:03:05.724Z,101504.53
2022-10-30T13:05:43.355Z,101505.56
2022-10-30T13:08:25.718Z,101498.41
2022-10-30T13:11:21.718Z,101493.06
2022-10-30T13:13:52.881Z,101506.34
2022-10-30T13:16:29.487Z,101498.13
2022-10-30T13:19:02.630Z,101501.56
2022-10-30T13:21:55.162Z,101499.56
2022-10-30T13:25:04.231Z,101493.75
2022-10-30T13:27:51.265Z,101494.91
2022-10-30T13:30:23.112Z,101487.38
2022-10-30T13:33:18.738Z,101477.91
2022-10-30T13:36:00.154Z,101482.47
2022-10-30T13:39:03.576Z,101489.00
2022-10-30T13:41:59.064Z,101478.66
2022-10-30T13:44:48.729Z,101489.28
2022-10-30T13:47:55.660Z,101475.34
2022-10-30T13:51:01.661Z,101477.38
2022-10-30T13:53:34.861Z,101473.97
2022-10-30T13:56:02.267Z,101473.22
2022-10-30T13:58:47.339Z,101474.06
2022-10-30T14:01:33.389Z,101480.41
2022-10-30T14:04:19.775Z,101485.84
2022-10-30T14:06:58.955Z,101477.03
2022-10-30T14:09:42.107Z,101483.53
2022-10-30T14:12:47.454Z,101486.59
2022-10-30T14:15:24.057Z,101481.72
2022-10-30T14:18:13.282Z,101488.22
2022-10-30T14:20:46.921Z,101493.94
2022-10-30T14:23:23.162Z,101489.88
2022-10-30T14:26:02.736Z,101497.22
2022-10-30T14:28:32.185Z,101498.44
2022-10-30T14:31:06.882Z,101494.13
2022-10-30T14:33:40.198Z,101499.56
2022-10-30T14:36:46.027Z,101503.31
2022-10-30T14:39:13.328Z,101505.28
2022-10-30T14:42:42.886Z,101508.06
2022-10-30T14:45:18.410Z,101514.66
2022-10-30T14:48:26.709Z,101521.97
2022-10-30T14:51:16.314Z,101513.38
2022-10-30T14:54:06.736Z,101525.78
2022-10-30T14:56:54.213Z,101518.72
2022-10-30T14:59:31.188Z,101512.59
2022-10-30T15:02:13.861Z,101512.78
2022-10-30T15:05:13.231Z,101526.16
2022-10-30T15:08:01.763Z,101522.69
2022-10-30T15:10:36.553Z,101523.91
2022-10-30T15:13:22.549Z,101526.78
2022-10-30T15:16:03.199Z,101512.81
2022-10-30T15:18:31.309Z,101517.66
2022-10-30T15:21:06.645Z,101522.38
2022-10-30T15:23:37.029Z,101516.53
2022-10-30T15:26:14.683Z,101520.44
2022-10-30T15:28:42.098Z,101519.94
2022-10-30T15:31:23.497Z,101528.22
2022-10-30T15:33:53.169Z,101533.13
2022-10-30T15:36:31.064Z,101537.06
2022-10-30T15:39:19.852Z,101541.03
2022-10-30T15:41:52.315Z,101542.44
2022-10-30T15:44:26.879Z,101544.56
2022-10-30T15:46:57.847Z,101548.41
2022-10-30T15:49:37.725Z,101557.69
2022-10-30T15:52:33.839Z,101554.56
2022-10-30T15:55:15.662Z,101565.63
2022-10-30T15:58:06.892Z,101582.06
2022-10-30T16:00:37.857Z,101587.94
2022-10-30T16:03:17.123Z,101588.28
2022-10-30T16:05:44.945Z,101589.47
2022-10-30T16:08:20.207Z,101591.56
2022-10-30T16:10:49.574Z,101600.84
2022-10-30T16:13:22.923Z,101603.75
2022-10-30T16:15:50.991Z,101606.81
2022-10-30T16:18:23.567Z,101608.97
2022-10-30T16:20:55.996Z,101617.25
2022-10-30T16:23:24.727Z,101611.38
2022-10-30T16:25:58.908Z,101630.41
2022-10-30T16:28:34.630Z,101635.25
2022-10-30T16:31:08.160Z,101644.44
2022-10-30T16:33:37.262Z,101643.03
2022-10-30T16:36:07.006Z,101651.25
2022-10-30T16:38:37.314Z,101643.44
2022-10-30T16:41:07.765Z,101649.84
2022-10-30T16:43:35.627Z,101653.53
2022-10-30T16:46:45.603Z,101657.16
2022-10-30T16:49:21.841Z,101665.31
2022-10-30T16:51:58.695Z,101660.94
2022-10-30T16:55:04.116Z,101656.72
2022-10-30T16:57:36.494Z,101667.47
2022-10-30T17:00:06.169Z,101665.78
2022-10-30T17:02:53.433Z,101674.66
2022-10-30T17:05:31.628Z,101676.63
2022-10-30T17:08:04.746Z,101685.69
2022-10-30T17:10:42.886Z,101691.13
2022-10-30T17:13:42.697Z,101694.06
2022-10-30T17:16:17.780Z,101686.50
2022-10-30T17:18:50.347Z,101697.31
2022-10-30T17:21:41.242Z,101692.19
2022-10-30T17:24:56.664Z,101701.31
2022-10-30T17:27:50.520Z,101701.56
2022-10-30T17:30:44.634Z,101696.53
2022-10-30T17:33:35.387Z,101706.38
2022-10-30T17:36:12.932Z,101704.84
2022-10-30T17:38:47.863Z,101712.03
2022-10-30T17:41:16.740Z,101707.63
2022-10-30T17:43:54.545Z,101707.69
2022-10-30T17:46:25.181Z,101690.13
2022-10-30T17:48:52.607Z,101692.88
2022-10-30T17:51:20.121Z,101706.22
2022-10-30T17:53:48.645Z,101701.91
2022-10-30T17:56:22.870Z,101700.22
2022-10-30T17:58:50.497Z,101703.88
2022-10-30T18:01:23.563Z,101715.53
2022-10-30T18:03:55.167Z,101724.56
2022-10-30T18:06:26.478Z,101734.50
2022-10-30T18:08:54.698Z,101732.97
2022-10-30T18:11:24.705Z,101737.59
2022-10-30T18:13:52.696Z,101742.25
2022-10-30T18:16:20.175Z,101741.50
2022-10-30T18:18:47.875Z,101748.66
2022-10-30T18:21:19.362Z,101752.38
2022-10-30T18:23:54.099Z,101756.16
2022-10-30T18:26:26.321Z,101763.44
2022-10-30T18:28:56.381Z,101764.50
2022-10-30T18:31:24.781Z,101765.50
2022-10-30T18:33:52.966Z,101770.09
2022-10-30T18:36:24.048Z,101772.06
2022-10-30T18:38:52.717Z,101787.31
2022-10-30T18:41:33.376Z,101785.72
2022-10-30T18:44:01.304Z,101782.34
2022-10-30T18:46:34.158Z,101791.28
2022-10-30T18:49:01.608Z,101796.75
2022-10-30T18:51:29.227Z,101802.19
2022-10-30T18:53:59.927Z,101801.44
2022-10-30T18:56:35.605Z,101801.47
2022-10-30T18:59:03.015Z,101791.00
2022-10-30T19:01:32.381Z,101788.38
2022-10-30T19:04:04.317Z,101786.78
2022-10-30T19:06:34.878Z,101787.69
2022-10-30T19:09:02.326Z,101783.34
2022-10-30T19:11:31.869Z,101792.25
2022-10-30T19:14:07.586Z,101788.78
2022-10-30T19:16:40.686Z,101795.03
2022-10-30T19:19:14.891Z,101799.53
2022-10-30T19:21:42.381Z,101803.22
2022-10-30T19:24:16.383Z,101813.91
2022-10-30T19:26:45.301Z,101808.69
2022-10-30T19:29:12.673Z,101804.34
2022-10-30T19:31:40.021Z,101800.88
2022-10-30T19:34:07.353Z,101804.44
2022-10-30T19:36:37.140Z,101811.53
2022-10-30T19:39:12.770Z,101815.97
2022-10-30T19:41:42.878Z,101820.47
2022-10-30T19:44:12.886Z,101820.47
2022-10-30T19:46:40.278Z,101819.66
2022-10-30T19:49:20.202Z,101817.00
2022-10-30T19:51:48.080Z,101817.94
2022-10-30T19:54:15.527Z,101825.97
2022-10-30T19:56:43.852Z,101820.75
2022-10-30T19:59:15.856Z,101833.22
2022-10-30T20:01:44.543Z,101843.06
2022-10-30T20:04:12.849Z,101844.03
2022-10-30T20:06:40.229Z,101837.00
2022-10-30T20:09:12.488Z,101837.09
2022-10-30T20:11:39.976Z,101839.88
2022-10-30T20:14:07.353Z,101847.00
2022-10-30T20:16:34.984Z,101853.28
2022-10-30T20:19:20.390Z,101847.16
2022-10-30T20:21:49.565Z,101850.75
2022-10-30T20:24:16.938Z,101846.41
2022-10-30T20:26:44.384Z,101855.25
2022-10-30T20:29:11.724Z,101849.13
2022-10-30T20:31:39.091Z,101849.13
2022-10-30T20:34:06.494Z,101854.56
2022-10-30T20:36:33.951Z,101853.72
2022-10-30T20:39:01.301Z,101849.41
2022-10-30T20:41:29.776Z,101848.59
2022-10-30T20:43:57.186Z,101855.75
2022-10-30T20:46:24.531Z,101867.25
2022-10-30T20:48:51.883Z,101862.94
2022-10-30T20:51:19.298Z,101868.28
2022-10-30T20:53:46.709Z,101870.09
2022-10-30T20:56:14.204Z,101870.19
2022-10-30T20:58:42.334Z,101874.66
2022-10-30T21:01:10.743Z,101881.72
2022-10-30T21:03:38.221Z,101888.00
2022-10-30T21:06:09.515Z,101886.31
2022-10-30T21:08:37.334Z,101891.66
2022-10-30T21:11:07.559Z,101896.09
2022-10-30T21:13:36.389Z,101898.81
2022-10-30T21:16:08.035Z,101901.53
2022-10-30T21:18:35.754Z,101907.88
2022-10-30T21:21:07.677Z,101914.06
2022-10-30T21:23:35.060Z,101914.16
2022-10-30T21:26:05.937Z,101917.66
2022-10-30T21:28:33.591Z,101923.00
2022-10-30T21:31:07.995Z,101911.50
2022-10-30T21:33:37.785Z,101910.72
2022-10-30T21:36:16.011Z,101915.16
2022-10-30T21:38:44.614Z,101920.47
2022-10-30T21:41:18.876Z,101914.31
2022-10-30T21:43:55.374Z,101916.09
2022-10-30T21:46:26.077Z,101916.19
2022-10-30T21:48:53.911Z,101915.38
2022-10-30T21:51:27.019Z,101912.72
2022-10-30T21:53:56.094Z,101918.97
2022-10-30T21:56:29.427Z,101931.28
2022-10-30T21:59:00.171Z,101926.94
2022-10-30T22:01:35.336Z,101925.13
2022-10-30T22:04:07.814Z,101931.31
2022-10-30T22:06:42.864Z,101934.91
2022-10-30T22:09:24.016Z,101930.50
2022-10-30T22:12:00.013Z,101929.69
2022-10-30T22:14:28.419Z,101939.41
2022-10-30T22:16:55.747Z,101929.78
2022-10-30T22:19:23.070Z,101935.94
2022-10-30T22:21:50.407Z,101935.97
2022-10-30T22:24:17.828Z,101929.84
2022-10-30T22:26:46.162Z,101932.50
2022-10-30T22:29:13.680Z,101939.63
2022-10-30T22:31:41.007Z,101932.59
2022-10-30T22:34:08.341Z,101937.06
2022-10-30T22:36:35.761Z,101932.69
2022-10-30T22:39:12.266Z,101941.50
2022-10-30T22:41:41.359Z,101946.00
2022-10-30T22:44:13.642Z,101946.06
2022-10-30T22:46:44.296Z,101946.16
2022-10-30T22:49:11.937Z,101949.69
2022-10-30T22:51:45.878Z,101951.47
2022-10-30T22:54:13.299Z,101949.72
2022-10-30T22:56:41.970Z,101949.72
2022-10-30T22:59:14.358Z,101948.88
2022-10-30T23:01:42.843Z,101955.09
2022-10-30T23:04:12.627Z,101947.19
2022-10-30T23:06:40.035Z,101949.84
2022-10-30T23:09:15.201Z,101951.66
2022-10-30T23:11:42.734Z,101953.47
2022-10-30T23:14:10.082Z,101948.16
2022-10-30T23:16:37.448Z,101958.78
2022-10-30T23:19:10.352Z,101957.97
2022-10-30T23:21:38.674Z,101958.09
2022-10-30T23:24:06.494Z,101970.47
2022-10-30T23:26:36.139Z,101964.34
2022-10-30T23:29:04.316Z,101959.94
2022-10-30T23:31:40.040Z,101967.03
2022-10-30T23:34:17.550Z,101962.69
2022-10-30T23:36:45.022Z,101956.56
2022-10-30T23:39:18.162Z,101953.09
2022-10-30T23:41:45.546Z,101961.09
2022-10-30T23:44:16.302Z,101957.69
2022-10-30T23:46:43.934Z,101951.59
2022-10-30T23:49:11.671Z,101949.00
2022-10-30T23:51:39.340Z,101965.81
2022-10-30T23:54:06.693Z,101955.28
2022-10-30T23:56:34.138Z,101957.09
2022-10-30T23:59:01.473Z,101961.63
